createdAt,value
2022-10-21T00:01:09.491Z,13.00
2022-10-21T00:03:38.908Z,12.90
2022-10-21T00:06:08.620Z,12.90
2022-10-21T00:08:36.079Z,12.90
2022-10-21T00:11:05.231Z,12.90
2022-10-21T00:13:35.633Z,12.80
2022-10-21T00:16:04.177Z,12.90
2022-10-21T00:18:33.328Z,13.00
2022-10-21T00:21:00.615Z,13.00
2022-10-21T00:23:29.781Z,13.00
2022-10-21T00:26:00.171Z,13.00
2022-10-21T00:28:32.649Z,13.00
2022-10-21T00:31:04.122Z,13.00
2022-10-21T00:33:30.840Z,13.00
2022-10-21T00:36:07.396Z,13.00
2022-10-21T00:38:36.013Z,13.00
2022-10-21T00:41:05.728Z,12.90
2022-10-21T00:43:32.636Z,12.90
2022-10-21T00:46:07.178Z,12.80
2022-10-21T00:48:45.147Z,12.90
2022-10-21T00:51:19.630Z,12.90
2022-10-21T00:53:49.138Z,12.90
2022-10-21T00:56:28.108Z,12.90
2022-10-21T00:58:57.760Z,12.90
2022-10-21T01:01:27.073Z,12.90
2022-10-21T01:03:55.897Z,12.90
2022-10-21T01:06:25.259Z,13.00
2022-10-21T01:08:54.547Z,13.00
2022-10-21T01:11:23.367Z,12.90
2022-10-21T01:14:05.627Z,12.90
2022-10-21T01:16:52.559Z,13.00
2022-10-21T01:20:12.865Z,12.90
2022-10-21T01:23:07.256Z,12.90
2022-10-21T01:26:04.213Z,12.90
2022-10-21T01:28:33.897Z,12.80
2022-10-21T01:31:21.015Z,12.80
2022-10-21T01:33:57.292Z,12.80
2022-10-21T01:36:53.466Z,12.90
2022-10-21T01:39:35.648Z,12.90
2022-10-21T01:42:05.690Z,13.00
2022-10-21T01:44:36.107Z,12.90
2022-10-21T01:47:13.575Z,12.90
2022-10-21T01:49:48.100Z,12.80
2022-10-21T01:52:17.663Z,12.80
2022-10-21T01:54:56.274Z,12.80
2022-10-21T01:57:29.815Z,12.80
2022-10-21T01:59:58.738Z,12.80
2022-10-21T02:02:28.883Z,12.80
2022-10-21T02:05:02.228Z,12.70
2022-10-21T02:07:29.111Z,12.70
2022-10-21T02:10:00.820Z,12.80
2022-10-21T02:12:32.084Z,12.80
2022-10-21T02:15:08.409Z,12.80
2022-10-21T02:17:37.939Z,12.90
2022-10-21T02:20:11.760Z,12.90
2022-10-21T02:22:41.497Z,12.90
2022-10-21T02:25:18.489Z,12.90
2022-10-21T02:27:45.408Z,12.90
2022-10-21T02:30:12.945Z,13.00
2022-10-21T02:32:50.967Z,13.00
2022-10-21T02:35:44.934Z,13.00
2022-10-21T02:38:14.478Z,13.00
2022-10-21T02:40:58.046Z,13.00
2022-10-21T02:43:32.653Z,13.00
2022-10-21T02:46:10.571Z,13.10
2022-10-21T02:48:42.153Z,13.20
2022-10-21T02:51:09.442Z,13.10
2022-10-21T02:53:36.752Z,13.00
2022-10-21T02:56:06.634Z,13.00
2022-10-21T02:58:36.253Z,13.00
2022-10-21T03:01:03.039Z,13.00
2022-10-21T03:03:29.954Z,12.90
2022-10-21T03:06:00.010Z,12.90
2022-10-21T03:08:29.223Z,12.90
2022-10-21T03:10:56.033Z,12.80
2022-10-21T03:13:25.334Z,12.80
2022-10-21T03:15:52.261Z,12.70
2022-10-21T03:18:19.547Z,12.60
2022-10-21T03:20:49.892Z,12.60
2022-10-21T03:23:20.685Z,12.50
2022-10-21T03:25:47.819Z,12.50
2022-10-21T03:28:14.498Z,12.50
2022-10-21T03:30:43.576Z,12.50
2022-10-21T03:33:12.478Z,12.60
2022-10-21T03:35:39.150Z,12.60
2022-10-21T03:38:08.136Z,12.60
2022-10-21T03:40:34.811Z,12.60
2022-10-21T03:43:01.531Z,12.60
2022-10-21T03:45:30.725Z,12.60
2022-10-21T03:47:57.446Z,12.60
2022-10-21T03:50:26.537Z,12.60
2022-10-21T03:52:59.265Z,12.50
2022-10-21T03:55:26.261Z,12.50
2022-10-21T03:57:53.668Z,12.40
2022-10-21T04:00:24.351Z,12.40
2022-10-21T04:02:52.780Z,12.50
2022-10-21T04:05:19.482Z,12.50
2022-10-21T04:07:50.621Z,12.50
2022-10-21T04:10:24.544Z,12.60
2022-10-21T04:12:51.294Z,12.60
2022-10-21T04:15:18.437Z,12.70
2022-10-21T04:17:52.709Z,12.60
2022-10-21T04:20:21.724Z,12.70
2022-10-21T04:22:48.408Z,12.80
2022-10-21T04:25:17.604Z,12.80
2022-10-21T04:27:44.296Z,12.80
2022-10-21T04:30:13.638Z,12.80
2022-10-21T04:32:40.776Z,12.80
2022-10-21T04:35:07.614Z,12.80
2022-10-21T04:37:34.311Z,12.90
2022-10-21T04:40:03.548Z,12.90
2022-10-21T04:42:30.209Z,12.90
2022-10-21T04:44:56.879Z,12.90
2022-10-21T04:47:23.569Z,12.90
2022-10-21T04:49:50.244Z,12.80
2022-10-21T04:52:16.911Z,12.80
2022-10-21T04:54:48.403Z,12.90
2022-10-21T04:57:15.090Z,12.90
2022-10-21T04:59:41.773Z,13.00
2022-10-21T05:02:10.939Z,13.00
2022-10-21T05:04:39.980Z,13.00
2022-10-21T05:07:06.758Z,13.00
2022-10-21T05:09:38.111Z,13.00
2022-10-21T05:12:04.884Z,13.00
2022-10-21T05:14:34.126Z,13.00
2022-10-21T05:17:00.853Z,13.00
2022-10-21T05:19:31.367Z,13.00
2022-10-21T05:22:00.991Z,13.00
2022-10-21T05:24:27.818Z,13.10
2022-10-21T05:26:56.765Z,13.10
2022-10-21T05:29:23.448Z,13.10
2022-10-21T05:31:50.459Z,13.10
2022-10-21T05:34:17.265Z,13.00
2022-10-21T05:36:43.954Z,13.10
2022-10-21T05:39:12.947Z,13.00
2022-10-21T05:41:41.097Z,13.00
2022-10-21T05:44:09.720Z,13.00
2022-10-21T05:46:38.945Z,13.00
2022-10-21T05:49:06.874Z,13.00
2022-10-21T05:51:33.558Z,13.00
2022-10-21T05:54:00.381Z,13.00
2022-10-21T05:56:29.475Z,13.00
2022-10-21T05:58:56.168Z,13.10
2022-10-21T06:01:25.146Z,13.10
2022-10-21T06:03:51.948Z,13.10
2022-10-21T06:06:21.300Z,13.20
2022-10-21T06:08:48.047Z,13.20
2022-10-21T06:11:21.684Z,13.20
2022-10-21T06:13:48.951Z,13.20
2022-10-21T06:16:16.426Z,13.20
2022-10-21T06:18:43.611Z,13.20
2022-10-21T06:21:10.633Z,13.30
2022-10-21T06:23:38.192Z,13.30
2022-10-21T06:26:13.910Z,13.30
2022-10-21T06:28:42.116Z,13.30
2022-10-21T06:31:11.500Z,13.30
2022-10-21T06:33:38.277Z,13.30
2022-10-21T06:36:05.157Z,13.30
2022-10-21T06:38:34.173Z,13.30
2022-10-21T06:41:03.249Z,13.30
2022-10-21T06:43:30.028Z,13.30
2022-10-21T06:46:05.725Z,13.30
2022-10-21T06:48:32.549Z,13.30
2022-10-21T06:51:01.184Z,13.30
2022-10-21T06:53:28.942Z,13.30
2022-10-21T06:56:09.088Z,13.30
2022-10-21T06:58:43.131Z,13.30
2022-10-21T07:01:21.477Z,13.30
2022-10-21T07:04:03.210Z,13.30
2022-10-21T07:09:00.605Z,13.30
2022-10-21T07:11:27.941Z,13.30
2022-10-21T07:13:59.693Z,13.30
2022-10-21T07:16:30.845Z,13.30
2022-10-21T07:18:57.897Z,13.40
2022-10-21T07:21:29.267Z,13.40
2022-10-21T07:23:59.112Z,13.40
2022-10-21T07:26:30.153Z,13.40
2022-10-21T07:28:58.725Z,13.50
2022-10-21T07:31:28.946Z,13.50
2022-10-21T07:33:56.118Z,13.50
2022-10-21T07:36:27.773Z,13.50
2022-10-21T07:38:59.675Z,13.50
2022-10-21T07:41:33.152Z,13.50
2022-10-21T07:44:00.359Z,13.50
2022-10-21T07:46:27.104Z,13.60
2022-10-21T07:48:53.856Z,13.60
2022-10-21T07:51:28.434Z,13.60
2022-10-21T07:53:57.647Z,13.60
2022-10-21T07:56:27.284Z,13.70
2022-10-21T07:58:54.725Z,13.70
2022-10-21T08:01:22.064Z,13.70
2022-10-21T08:03:49.587Z,13.80
2022-10-21T08:06:19.003Z,13.90
2022-10-21T08:08:46.201Z,13.90
2022-10-21T08:11:24.921Z,13.90
2022-10-21T08:13:54.210Z,14.00
2022-10-21T08:16:23.541Z,14.00
2022-10-21T08:18:52.936Z,14.00
2022-10-21T08:21:20.441Z,14.00
2022-10-21T08:23:51.875Z,14.10
2022-10-21T08:26:19.203Z,14.10
2022-10-21T08:28:48.388Z,14.10
2022-10-21T08:31:20.064Z,14.10
2022-10-21T08:33:46.863Z,14.10
2022-10-21T08:36:20.118Z,14.20
2022-10-21T08:38:50.044Z,14.30
2022-10-21T08:41:34.739Z,14.30
2022-10-21T08:44:22.526Z,14.40
2022-10-21T08:47:04.529Z,14.40
2022-10-21T08:49:58.864Z,14.40
2022-10-21T08:52:44.464Z,14.40
2022-10-21T08:55:17.339Z,14.60
2022-10-21T08:57:44.177Z,14.60
2022-10-21T09:00:31.053Z,14.80
2022-10-21T09:03:11.356Z,14.80
2022-10-21T09:05:40.792Z,14.90
2022-10-21T09:08:18.839Z,15.00
2022-10-21T09:10:51.401Z,15.10
2022-10-21T09:13:37.729Z,15.20
2022-10-21T09:16:21.782Z,15.30
2022-10-21T09:19:07.294Z,15.30
2022-10-21T09:22:33.728Z,15.30
2022-10-21T09:25:04.849Z,15.40
2022-10-21T09:27:51.376Z,15.40
2022-10-21T09:30:22.842Z,15.50
2022-10-21T09:32:51.606Z,15.50
2022-10-21T09:35:36.158Z,15.50
2022-10-21T09:38:12.707Z,15.40
2022-10-21T09:40:41.607Z,15.40
2022-10-21T09:43:20.641Z,15.50
2022-10-21T09:45:47.621Z,15.60
2022-10-21T09:48:17.373Z,15.50
2022-10-21T09:50:49.105Z,15.50
2022-10-21T09:53:29.655Z,15.50
2022-10-21T09:56:12.917Z,15.50
2022-10-21T09:58:42.398Z,15.50
2022-10-21T10:01:30.547Z,15.60
2022-10-21T10:03:57.877Z,15.70
2022-10-21T10:06:40.595Z,16.00
2022-10-21T10:09:32.717Z,16.20
2022-10-21T10:12:04.066Z,16.50
2022-10-21T10:14:34.987Z,16.80
2022-10-21T10:17:26.038Z,17.00
2022-10-21T10:20:05.200Z,17.10
2022-10-21T10:22:38.460Z,17.20
2022-10-21T10:25:10.737Z,17.20
2022-10-21T10:27:46.302Z,17.20
2022-10-21T10:30:15.104Z,17.20
2022-10-21T10:32:41.907Z,17.20
2022-10-21T10:35:28.298Z,17.20
2022-10-21T10:37:58.524Z,17.20
2022-10-21T10:40:41.750Z,17.30
2022-10-21T10:43:33.070Z,17.30
2022-10-21T10:46:01.143Z,17.40
2022-10-21T10:48:37.313Z,17.50
2022-10-21T10:51:28.863Z,17.50
2022-10-21T10:54:28.881Z,17.50
2022-10-21T10:56:56.907Z,17.70
2022-10-21T10:59:23.544Z,17.70
2022-10-21T11:02:08.974Z,17.70
2022-10-21T11:05:05.445Z,17.70
2022-10-21T11:07:45.403Z,17.80
2022-10-21T11:10:29.890Z,17.80
2022-10-21T11:12:56.835Z,17.70
2022-10-21T11:15:49.038Z,17.80
2022-10-21T11:18:32.572Z,17.80
2022-10-21T11:21:16.905Z,17.80
2022-10-21T11:23:56.927Z,17.90
2022-10-21T11:26:33.529Z,17.90
2022-10-21T11:29:12.370Z,18.00
2022-10-21T11:32:12.343Z,18.10
2022-10-21T11:35:08.697Z,18.20
2022-10-21T11:37:41.746Z,18.30
2022-10-21T11:40:19.452Z,18.40
2022-10-21T11:42:51.772Z,18.50
2022-10-21T11:45:33.437Z,18.50
2022-10-21T11:48:12.249Z,18.60
2022-10-21T11:50:38.903Z,18.50
2022-10-21T11:53:27.756Z,18.50
2022-10-21T11:56:29.426Z,18.70
2022-10-21T12:01:57.518Z,19.00
2022-10-21T12:04:41.639Z,19.20
2022-10-21T12:07:46.390Z,19.40
2022-10-21T12:10:30.244Z,19.80
2022-10-21T12:13:04.343Z,19.90
2022-10-21T12:15:41.913Z,19.70
2022-10-21T12:18:15.908Z,19.40
2022-10-21T12:20:50.211Z,19.40
2022-10-21T12:23:25.733Z,19.30
2022-10-21T12:26:23.670Z,19.30
2022-10-21T12:29:10.903Z,19.40
2022-10-21T12:31:46.870Z,19.50
2022-10-21T12:34:16.044Z,19.30
2022-10-21T12:36:46.634Z,19.20
2022-10-21T12:39:32.959Z,19.30
2022-10-21T12:42:22.358Z,19.30
2022-10-21T12:44:51.643Z,19.20
2022-10-21T12:47:31.298Z,19.20
2022-10-21T12:50:17.981Z,19.10
2022-10-21T12:52:49.317Z,19.00
2022-10-21T12:55:25.693Z,18.80
2022-10-21T12:58:02.532Z,18.60
2022-10-21T13:00:29.230Z,18.60
2022-10-21T13:03:23.251Z,18.50
2022-10-21T13:05:52.117Z,18.40
2022-10-21T13:08:24.555Z,18.40
2022-10-21T13:11:08.705Z,18.40
2022-10-21T13:13:43.114Z,18.40
2022-10-21T13:16:18.062Z,18.50
2022-10-21T13:18:51.146Z,18.60
2022-10-21T13:21:29.953Z,18.60
2022-10-21T13:24:05.457Z,18.60
2022-10-21T13:26:32.637Z,18.60
2022-10-21T13:29:13.985Z,18.60
2022-10-21T13:31:45.929Z,18.50
2022-10-21T13:34:33.865Z,18.40
2022-10-21T13:37:11.827Z,18.40
2022-10-21T13:39:38.937Z,18.50
2022-10-21T13:42:16.578Z,18.60
2022-10-21T13:44:51.991Z,18.60
2022-10-21T13:47:30.392Z,18.60
2022-10-21T13:50:18.491Z,18.60
2022-10-21T13:52:45.596Z,18.50
2022-10-21T13:55:21.603Z,18.50
2022-10-21T13:57:52.805Z,18.30
2022-10-21T14:00:28.026Z,18.20
2022-10-21T14:03:05.779Z,18.00
2022-10-21T14:05:51.634Z,17.90
2022-10-21T14:08:29.943Z,17.80
2022-10-21T14:11:02.610Z,17.80
2022-10-21T14:13:36.490Z,17.70
2022-10-21T14:16:04.990Z,17.70
2022-10-21T14:18:37.261Z,17.60
2022-10-21T14:21:05.631Z,17.50
2022-10-21T14:23:34.821Z,17.50
2022-10-21T14:26:11.034Z,17.40
2022-10-21T14:28:40.562Z,17.40
2022-10-21T14:31:11.800Z,17.40
2022-10-21T14:33:45.009Z,17.30
2022-10-21T14:36:24.824Z,17.10
2022-10-21T14:39:00.772Z,17.10
2022-10-21T14:41:35.237Z,17.20
2022-10-21T14:44:17.073Z,17.20
2022-10-21T14:46:49.619Z,17.20
2022-10-21T14:49:46.403Z,17.30
2022-10-21T14:52:23.116Z,17.30
2022-10-21T14:55:01.123Z,17.30
2022-10-21T14:57:41.312Z,17.20
2022-10-21T15:00:30.261Z,17.20
2022-10-21T15:02:59.174Z,17.10
2022-10-21T15:05:34.269Z,17.10
2022-10-21T15:08:21.586Z,17.20
2022-10-21T15:10:57.844Z,17.20
2022-10-21T15:13:26.718Z,17.10
2022-10-21T15:15:55.858Z,17.00
2022-10-21T15:18:47.615Z,16.90
2022-10-21T15:21:23.783Z,16.80
2022-10-21T15:23:51.920Z,16.70
2022-10-21T15:26:34.231Z,16.70
2022-10-21T15:29:11.113Z,16.60
2022-10-21T15:31:37.815Z,16.60
2022-10-21T15:34:06.322Z,16.60
2022-10-21T15:36:32.992Z,16.50
2022-10-21T15:39:05.380Z,16.40
2022-10-21T15:41:39.909Z,16.40
2022-10-21T15:44:36.992Z,16.40
2022-10-21T15:47:11.251Z,16.30
2022-10-21T15:49:42.605Z,16.20
2022-10-21T15:52:09.985Z,16.10
2022-10-21T15:54:36.676Z,16.10
2022-10-21T15:57:17.541Z,16.00
2022-10-21T15:59:44.735Z,16.00
2022-10-21T16:02:17.087Z,15.90
2022-10-21T16:04:44.913Z,15.80
2022-10-21T16:07:23.003Z,15.80
2022-10-21T16:09:50.063Z,15.70
2022-10-21T16:12:23.032Z,15.60
2022-10-21T16:14:49.766Z,15.60
2022-10-21T16:17:19.234Z,15.50
2022-10-21T16:19:45.913Z,15.40
2022-10-21T16:22:21.894Z,15.40
2022-10-21T16:24:48.770Z,15.30
2022-10-21T16:27:31.166Z,15.30
2022-10-21T16:30:15.972Z,15.20
2022-10-21T16:32:49.982Z,15.10
2022-10-21T16:35:24.225Z,15.10
2022-10-21T16:38:17.778Z,15.10
2022-10-21T16:40:44.463Z,15.00
2022-10-21T16:43:12.703Z,14.90
2022-10-21T16:48:26.535Z,14.80
2022-10-21T16:50:57.832Z,14.80
2022-10-21T16:53:28.906Z,14.80
2022-10-21T16:55:57.997Z,14.80
2022-10-21T16:58:24.797Z,14.70
2022-10-21T17:00:53.770Z,14.60
2022-10-21T17:03:20.482Z,14.60
2022-10-21T17:05:47.211Z,14.60
2022-10-21T17:08:14.335Z,14.60
2022-10-21T17:10:43.545Z,14.70
2022-10-21T17:13:12.165Z,14.60
2022-10-21T17:15:41.459Z,14.60
2022-10-21T17:18:10.659Z,14.60
2022-10-21T17:20:40.039Z,14.70
2022-10-21T17:23:06.813Z,14.70
2022-10-21T17:25:36.380Z,14.60
2022-10-21T17:28:03.127Z,14.50
2022-10-21T17:30:32.122Z,14.50
2022-10-21T17:32:58.777Z,14.40
2022-10-21T17:35:25.474Z,14.40
2022-10-21T17:37:54.452Z,14.40
2022-10-21T17:40:24.868Z,14.30
2022-10-21T17:42:52.180Z,14.30
2022-10-21T17:45:22.967Z,14.30
2022-10-21T17:47:50.972Z,14.20
2022-10-21T17:50:23.384Z,14.30
2022-10-21T17:52:53.112Z,14.20
2022-10-21T17:55:20.022Z,14.30
2022-10-21T17:57:46.834Z,14.30
2022-10-21T18:00:15.925Z,14.20
2022-10-21T18:02:44.931Z,14.20
2022-10-21T18:05:11.758Z,14.20
2022-10-21T18:07:39.173Z,14.20
2022-10-21T18:10:11.112Z,14.20
2022-10-21T18:12:40.429Z,14.10
2022-10-21T18:15:07.844Z,14.10
2022-10-21T18:17:34.811Z,14.10
2022-10-21T18:20:01.569Z,14.10
2022-10-21T18:22:30.888Z,14.10
2022-10-21T18:24:57.561Z,14.10
2022-10-21T18:27:26.562Z,14.10
2022-10-21T18:29:55.454Z,14.10
2022-10-21T18:32:22.204Z,14.10
2022-10-21T18:34:53.675Z,14.10
2022-10-21T18:37:22.584Z,14.10
2022-10-21T18:39:49.331Z,14.00
2022-10-21T18:42:16.023Z,14.00
2022-10-21T18:44:45.062Z,14.00
2022-10-21T18:47:12.236Z,13.90
2022-10-21T18:49:38.951Z,13.90
2022-10-21T18:52:06.025Z,13.80
2022-10-21T18:54:35.263Z,13.80
2022-10-21T18:57:02.143Z,13.70
2022-10-21T18:59:28.842Z,13.70
2022-10-21T19:01:55.889Z,13.80
2022-10-21T19:04:25.648Z,13.80
2022-10-21T19:06:52.354Z,13.80
2022-10-21T19:09:24.414Z,13.80
2022-10-21T19:11:51.468Z,13.80
2022-10-21T19:14:21.261Z,13.90
2022-10-21T19:16:51.214Z,13.80
2022-10-21T19:19:18.013Z,13.80
2022-10-21T19:21:44.792Z,13.70
2022-10-21T19:24:12.105Z,13.70
2022-10-21T19:26:41.292Z,13.70
2022-10-21T19:29:17.145Z,13.70
2022-10-21T19:34:26.296Z,13.70
2022-10-21T19:36:53.103Z,13.70
2022-10-21T19:39:20.278Z,13.70
2022-10-21T19:41:49.927Z,13.70
2022-10-21T19:44:16.736Z,13.70
2022-10-21T19:46:50.914Z,13.70
2022-10-21T19:49:22.489Z,13.70
2022-10-21T19:51:53.876Z,13.70
2022-10-21T19:54:23.164Z,13.70
2022-10-21T19:56:52.621Z,13.70
2022-10-21T19:59:24.993Z,13.70
2022-10-21T20:01:56.489Z,13.70
2022-10-21T20:04:25.519Z,13.60
2022-10-21T20:06:58.944Z,13.60
2022-10-21T20:09:32.769Z,13.60
2022-10-21T20:12:06.253Z,13.70
2022-10-21T20:14:33.004Z,13.70
2022-10-21T20:16:59.676Z,13.70
2022-10-21T20:19:26.478Z,13.70
2022-10-21T20:21:53.149Z,13.70
2022-10-21T20:24:22.077Z,13.70
2022-10-21T20:26:49.141Z,13.70
2022-10-21T20:29:16.012Z,13.70
2022-10-21T20:31:48.472Z,13.70
2022-10-21T20:34:22.336Z,13.60
2022-10-21T20:36:49.067Z,13.70
2022-10-21T20:39:18.347Z,13.60
2022-10-21T20:41:47.628Z,13.60
2022-10-21T20:44:17.242Z,13.60
2022-10-21T20:46:47.624Z,13.60
2022-10-21T20:49:14.501Z,13.60
2022-10-21T20:51:46.970Z,13.60
2022-10-21T20:54:17.747Z,13.60
2022-10-21T20:56:45.088Z,13.60
2022-10-21T20:59:17.444Z,13.70
2022-10-21T21:01:46.492Z,13.70
2022-10-21T21:04:20.521Z,13.70
2022-10-21T21:06:51.410Z,13.70
2022-10-21T21:12:10.723Z,13.60
2022-10-21T21:14:37.575Z,13.70
2022-10-21T21:17:06.833Z,13.60
2022-10-21T21:19:33.792Z,13.60
2022-10-21T21:22:03.797Z,13.70
2022-10-21T21:24:32.917Z,13.70
2022-10-21T21:27:02.132Z,13.60
2022-10-21T21:29:31.043Z,13.60
2022-10-21T21:31:57.727Z,13.60
2022-10-21T21:34:24.510Z,13.70
2022-10-21T21:36:53.431Z,13.70
2022-10-21T21:39:22.290Z,13.70
2022-10-21T21:41:49.265Z,13.70
2022-10-21T21:44:15.997Z,13.60
2022-10-21T21:46:44.900Z,13.60
2022-10-21T21:49:11.654Z,13.60
2022-10-21T21:51:38.367Z,13.60
2022-10-21T21:54:06.751Z,13.60
2022-10-21T21:56:36.200Z,13.60
2022-10-21T21:59:05.512Z,13.60
2022-10-21T22:01:32.427Z,13.70
2022-10-21T22:04:03.048Z,13.60
2022-10-21T22:06:34.979Z,13.70
2022-10-21T22:09:01.822Z,13.70
2022-10-21T22:11:31.914Z,13.80
2022-10-21T22:14:01.399Z,13.80
2022-10-21T22:16:30.150Z,13.70
2022-10-21T22:18:59.878Z,13.70
2022-10-21T22:21:29.760Z,13.70
2022-10-21T22:23:59.341Z,13.70
2022-10-21T22:26:26.984Z,13.70
2022-10-21T22:28:56.282Z,13.70
2022-10-21T22:31:28.948Z,13.70
2022-10-21T22:34:00.344Z,13.70
2022-10-21T22:36:31.673Z,13.70
2022-10-21T22:38:58.488Z,13.70
2022-10-21T22:41:27.512Z,13.80
2022-10-21T22:43:54.276Z,13.70
2022-10-21T22:46:32.838Z,13.70
2022-10-21T22:49:01.216Z,13.60
2022-10-21T22:51:27.913Z,13.60
2022-10-21T22:53:56.480Z,13.60
2022-10-21T22:56:26.635Z,13.60
2022-10-21T22:58:53.609Z,13.60
2022-10-21T23:01:20.423Z,13.60
2022-10-21T23:03:49.730Z,13.60
2022-10-21T23:06:16.447Z,13.60
2022-10-21T23:08:45.707Z,13.60
2022-10-21T23:11:14.770Z,13.60
2022-10-21T23:13:51.232Z,13.50
2022-10-21T23:16:30.637Z,13.60
2022-10-21T23:18:57.472Z,13.50
2022-10-21T23:21:24.174Z,13.60
2022-10-21T23:23:54.048Z,13.60
2022-10-21T23:26:21.186Z,13.50
2022-10-21T23:28:52.411Z,13.50
2022-10-21T23:31:19.771Z,13.60
2022-10-21T23:33:49.567Z,13.60
2022-10-21T23:36:18.791Z,13.60
2022-10-21T23:38:47.721Z,13.60
2022-10-21T23:41:14.432Z,13.60
2022-10-21T23:43:43.724Z,13.60
2022-10-21T23:46:13.000Z,13.60
2022-10-21T23:48:41.982Z,13.60
2022-10-21T23:51:08.758Z,13.70
2022-10-21T23:53:35.477Z,13.70
2022-10-21T23:56:02.262Z,13.70
2022-10-21T23:58:31.603Z,13.70
